sensor_id;sensor_type;location;lat;lon;timestamp;temperature;humidity
3308;DHT22;1666;48.898;9.182;2023-07-31T00:01:04;17.10;1.00
3308;DHT22;1666;48.898;9.182;2023-07-31T00:03:34;17.00;1.00
3308;DHT22;1666;48.898;9.182;2023-07-31T00:06:04;16.90;1.00
3308;DHT22;1666;48.898;9.182;2023-07-31T00:08:34;16.90;1.00
3308;DHT22;1666;48.898;9.182;2023-07-31T00:11:04;16.90;1.00
3308;DHT22;1666;48.898;9.182;2023-07-31T00:13:34;16.80;1.00
3308;DHT22;1666;48.898;9.182;2023-07-31T00:16:06;16.80;1.00
3308;DHT22;1666;48.898;9.182;2023-07-31T00:18:36;16.80;1.00
3308;DHT22;1666;48.898;9.182;2023-07-31T00:21:06;16.80;1.00
3308;DHT22;1666;48.898;9.182;2023-07-31T00:23:36;16.70;1.00
3308;DHT22;1666;48.898;9.182;2023-07-31T00:26:06;16.70;1.00
3308;DHT22;1666;48.898;9.182;2023-07-31T00:28:35;16.70;1.00
3308;DHT22;1666;48.898;9.182;2023-07-31T00:31:08;16.60;1.00
3308;DHT22;1666;48.898;9.182;2023-07-31T00:33:38;16.60;1.00
3308;DHT22;1666;48.898;9.182;2023-07-31T00:36:08;16.60;1.00
3308;DHT22;1666;48.898;9.182;2023-07-31T00:38:38;16.60;1.00
3308;DHT22;1666;48.898;9.182;2023-07-31T00:41:08;16.50;1.00
3308;DHT22;1666;48.898;9.182;2023-07-31T00:43:38;16.50;1.00
3308;DHT22;1666;48.898;9.182;2023-07-31T00:46:10;16.50;1.00
3308;DHT22;1666;48.898;9.182;2023-07-31T00:48:40;16.50;1.00
3308;DHT22;1666;48.898;9.182;2023-07-31T00:51:11;16.40;1.00
3308;DHT22;1666;48.898;9.182;2023-07-31T00:53:40;16.40;1.00
3308;DHT22;1666;48.898;9.182;2023-07-31T00:56:11;16.30;1.00
3308;DHT22;1666;48.898;9.182;2023-07-31T00:58:41;16.20;1.00
3308;DHT22;1666;48.898;9.182;2023-07-31T01:01:14;16.20;1.00
3308;DHT22;1666;48.898;9.182;2023-07-31T01:03:44;16.10;1.00
3308;DHT22;1666;48.898;9.182;2023-07-31T01:06:17;16.20;1.00
3308;DHT22;1666;48.898;9.182;2023-07-31T01:08:54;16.20;1.00
3308;DHT22;1666;48.898;9.182;2023-07-31T01:11:27;16.10;1.00
3308;DHT22;1666;48.898;9.182;2023-07-31T01:13:57;16.00;1.00
3308;DHT22;1666;48.898;9.182;2023-07-31T01:16:30;16.00;1.00
3308;DHT22;1666;48.898;9.182;2023-07-31T01:19:00;15.90;1.00
3308;DHT22;1666;48.898;9.182;2023-07-31T01:21:51;15.90;1.00
3308;DHT22;1666;48.898;9.182;2023-07-31T01:24:30;16.00;1.00
3308;DHT22;1666;48.898;9.182;2023-07-31T01:27:11;16.10;1.00
3308;DHT22;1666;48.898;9.182;2023-07-31T01:29:49;16.10;1.00
3308;DHT22;1666;48.898;9.182;2023-07-31T01:32:21;16.10;1.00
3308;DHT22;1666;48.898;9.182;2023-07-31T01:34:52;16.00;1.00
3308;DHT22;1666;48.898;9.182;2023-07-31T01:37:28;16.00;1.00
3308;DHT22;1666;48.898;9.182;2023-07-31T01:39:58;16.00;1.00
3308;DHT22;1666;48.898;9.182;2023-07-31T01:42:30;16.00;1.00
3308;DHT22;1666;48.898;9.182;2023-07-31T01:45:00;15.80;1.00
3308;DHT22;1666;48.898;9.182;2023-07-31T01:47:30;15.90;1.00
3308;DHT22;1666;48.898;9.182;2023-07-31T01:50:00;15.80;1.00
3308;DHT22;1666;48.898;9.182;2023-07-31T01:52:30;15.90;1.00
3308;DHT22;1666;48.898;9.182;2023-07-31T01:55:00;15.90;1.00
3308;DHT22;1666;48.898;9.182;2023-07-31T01:57:33;15.90;1.00
3308;DHT22;1666;48.898;9.182;2023-07-31T02:00:04;15.90;1.00
3308;DHT22;1666;48.898;9.182;2023-07-31T02:02:34;15.80;1.00
3308;DHT22;1666;48.898;9.182;2023-07-31T02:05:05;15.80;1.00
3308;DHT22;1666;48.898;9.182;2023-07-31T02:07:35;15.80;1.00
3308;DHT22;1666;48.898;9.182;2023-07-31T02:10:06;15.70;1.00
3308;DHT22;1666;48.898;9.182;2023-07-31T02:12:39;15.70;1.00
3308;DHT22;1666;48.898;9.182;2023-07-31T02:15:09;15.80;1.00
3308;DHT22;1666;48.898;9.182;2023-07-31T02:17:39;15.80;1.00
3308;DHT22;1666;48.898;9.182;2023-07-31T02:20:10;15.80;1.00
3308;DHT22;1666;48.898;9.182;2023-07-31T02:22:40;15.80;1.00
3308;DHT22;1666;48.898;9.182;2023-07-31T02:25:10;15.80;1.00
3308;DHT22;1666;48.898;9.182;2023-07-31T02:27:42;15.90;1.00
3308;DHT22;1666;48.898;9.182;2023-07-31T02:30:12;15.90;1.00
3308;DHT22;1666;48.898;9.182;2023-07-31T02:32:42;15.90;1.00
3308;DHT22;1666;48.898;9.182;2023-07-31T02:35:12;15.90;1.00
3308;DHT22;1666;48.898;9.182;2023-07-31T02:37:42;15.90;1.00
3308;DHT22;1666;48.898;9.182;2023-07-31T02:40:13;15.90;1.00
3308;DHT22;1666;48.898;9.182;2023-07-31T02:42:45;15.90;1.00
3308;DHT22;1666;48.898;9.182;2023-07-31T02:45:15;15.90;1.00
3308;DHT22;1666;48.898;9.182;2023-07-31T02:47:45;15.90;1.00
3308;DHT22;1666;48.898;9.182;2023-07-31T02:50:15;15.90;1.00
3308;DHT22;1666;48.898;9.182;2023-07-31T02:52:45;15.90;1.00
3308;DHT22;1666;48.898;9.182;2023-07-31T02:55:15;15.90;1.00
3308;DHT22;1666;48.898;9.182;2023-07-31T02:57:48;15.90;1.00
3308;DHT22;1666;48.898;9.182;2023-07-31T03:00:19;15.90;1.00
3308;DHT22;1666;48.898;9.182;2023-07-31T03:02:49;15.90;1.00
3308;DHT22;1666;48.898;9.182;2023-07-31T03:05:19;15.90;1.00
3308;DHT22;1666;48.898;9.182;2023-07-31T03:07:51;15.90;1.00
3308;DHT22;1666;48.898;9.182;2023-07-31T03:10:21;15.80;1.00
3308;DHT22;1666;48.898;9.182;2023-07-31T03:12:53;15.80;1.00
3308;DHT22;1666;48.898;9.182;2023-07-31T03:15:23;15.70;1.00
3308;DHT22;1666;48.898;9.182;2023-07-31T03:17:53;15.70;1.00
3308;DHT22;1666;48.898;9.182;2023-07-31T03:20:23;15.70;1.00
3308;DHT22;1666;48.898;9.182;2023-07-31T03:22:53;15.60;1.00
3308;DHT22;1666;48.898;9.182;2023-07-31T03:25:23;15.70;1.00
3308;DHT22;1666;48.898;9.182;2023-07-31T03:27:55;15.70;1.00
3308;DHT22;1666;48.898;9.182;2023-07-31T03:30:26;15.70;1.00
3308;DHT22;1666;48.898;9.182;2023-07-31T03:32:56;15.70;1.00
3308;DHT22;1666;48.898;9.182;2023-07-31T03:35:26;15.70;1.00
3308;DHT22;1666;48.898;9.182;2023-07-31T03:37:56;15.60;1.00
3308;DHT22;1666;48.898;9.182;2023-07-31T03:40:26;15.60;1.00
3308;DHT22;1666;48.898;9.182;2023-07-31T03:42:58;15.50;1.00
3308;DHT22;1666;48.898;9.182;2023-07-31T03:45:28;15.50;1.00
3308;DHT22;1666;48.898;9.182;2023-07-31T03:47:58;15.50;1.00
3308;DHT22;1666;48.898;9.182;2023-07-31T03:50:28;15.50;1.00
3308;DHT22;1666;48.898;9.182;2023-07-31T03:52:58;15.50;1.00
3308;DHT22;1666;48.898;9.182;2023-07-31T03:55:28;15.50;1.00
3308;DHT22;1666;48.898;9.182;2023-07-31T03:58:01;15.60;1.00
3308;DHT22;1666;48.898;9.182;2023-07-31T04:00:31;15.50;1.00
3308;DHT22;1666;48.898;9.182;2023-07-31T04:03:01;15.50;1.00
3308;DHT22;1666;48.898;9.182;2023-07-31T04:05:31;15.50;1.00
3308;DHT22;1666;48.898;9.182;2023-07-31T04:08:02;15.60;1.00
3308;DHT22;1666;48.898;9.182;2023-07-31T04:10:32;15.60;1.00
3308;DHT22;1666;48.898;9.182;2023-07-31T04:13:04;15.70;1.00
3308;DHT22;1666;48.898;9.182;2023-07-31T04:15:34;15.70;1.00
3308;DHT22;1666;48.898;9.182;2023-07-31T04:18:04;16.00;1.00
3308;DHT22;1666;48.898;9.182;2023-07-31T04:20:34;16.90;1.00
3308;DHT22;1666;48.898;9.182;2023-07-31T04:23:06;16.90;1.00
3308;DHT22;1666;48.898;9.182;2023-07-31T04:25:36;16.80;1.00
3308;DHT22;1666;48.898;9.182;2023-07-31T04:28:08;16.50;1.00
3308;DHT22;1666;48.898;9.182;2023-07-31T04:30:39;16.30;1.00
3308;DHT22;1666;48.898;9.182;2023-07-31T04:33:09;16.40;1.00
3308;DHT22;1666;48.898;9.182;2023-07-31T04:35:39;16.40;1.00
3308;DHT22;1666;48.898;9.182;2023-07-31T04:38:09;16.50;1.00
3308;DHT22;1666;48.898;9.182;2023-07-31T04:40:39;17.20;1.00
3308;DHT22;1666;48.898;9.182;2023-07-31T04:43:11;17.40;1.00
3308;DHT22;1666;48.898;9.182;2023-07-31T04:45:45;17.60;1.00
3308;DHT22;1666;48.898;9.182;2023-07-31T04:48:15;17.50;1.00
3308;DHT22;1666;48.898;9.182;2023-07-31T04:50:45;17.40;1.00
3308;DHT22;1666;48.898;9.182;2023-07-31T04:53:15;17.50;1.00
3308;DHT22;1666;48.898;9.182;2023-07-31T04:55:45;17.40;1.00
3308;DHT22;1666;48.898;9.182;2023-07-31T04:58:18;17.30;1.00
3308;DHT22;1666;48.898;9.182;2023-07-31T05:00:47;18.20;1.00
3308;DHT22;1666;48.898;9.182;2023-07-31T05:03:17;18.00;1.00
3308;DHT22;1666;48.898;9.182;2023-07-31T05:05:48;18.00;1.00
3308;DHT22;1666;48.898;9.182;2023-07-31T05:08:17;18.20;1.00
3308;DHT22;1666;48.898;9.182;2023-07-31T05:10:47;18.10;1.00
3308;DHT22;1666;48.898;9.182;2023-07-31T05:13:20;17.90;1.00
3308;DHT22;1666;48.898;9.182;2023-07-31T05:15:50;17.50;1.00
3308;DHT22;1666;48.898;9.182;2023-07-31T05:18:20;17.40;1.00
3308;DHT22;1666;48.898;9.182;2023-07-31T05:20:50;17.60;1.00
3308;DHT22;1666;48.898;9.182;2023-07-31T05:23:19;17.80;1.00
3308;DHT22;1666;48.898;9.182;2023-07-31T05:25:49;17.90;1.00
3308;DHT22;1666;48.898;9.182;2023-07-31T05:28:22;18.70;1.00
3308;DHT22;1666;48.898;9.182;2023-07-31T05:30:52;20.30;1.00
3308;DHT22;1666;48.898;9.182;2023-07-31T05:33:28;20.80;1.00
3308;DHT22;1666;48.898;9.182;2023-07-31T05:35:58;20.70;1.00
3308;DHT22;1666;48.898;9.182;2023-07-31T05:38:28;20.80;1.00
3308;DHT22;1666;48.898;9.182;2023-07-31T05:40:58;21.70;1.00
3308;DHT22;1666;48.898;9.182;2023-07-31T05:43:30;22.30;1.00
3308;DHT22;1666;48.898;9.182;2023-07-31T05:46:00;21.70;1.00
3308;DHT22;1666;48.898;9.182;2023-07-31T05:48:32;20.60;1.00
3308;DHT22;1666;48.898;9.182;2023-07-31T05:51:03;19.60;1.00
3308;DHT22;1666;48.898;9.182;2023-07-31T05:53:34;18.90;1.00
3308;DHT22;1666;48.898;9.182;2023-07-31T05:56:08;18.90;1.00
3308;DHT22;1666;48.898;9.182;2023-07-31T05:58:40;18.70;1.00
3308;DHT22;1666;48.898;9.182;2023-07-31T06:01:10;18.70;1.00
3308;DHT22;1666;48.898;9.182;2023-07-31T06:03:40;18.70;1.00
3308;DHT22;1666;48.898;9.182;2023-07-31T06:06:11;18.90;1.00
3308;DHT22;1666;48.898;9.182;2023-07-31T06:08:41;18.90;1.00
3308;DHT22;1666;48.898;9.182;2023-07-31T06:11:11;19.10;1.00
3308;DHT22;1666;48.898;9.182;2023-07-31T06:13:43;19.30;1.00
3308;DHT22;1666;48.898;9.182;2023-07-31T06:16:15;18.90;1.00
3308;DHT22;1666;48.898;9.182;2023-07-31T06:18:45;19.10;1.00
3308;DHT22;1666;48.898;9.182;2023-07-31T06:21:15;19.70;1.00
3308;DHT22;1666;48.898;9.182;2023-07-31T06:23:45;20.40;1.00
3308;DHT22;1666;48.898;9.182;2023-07-31T06:26:15;20.40;1.00
3308;DHT22;1666;48.898;9.182;2023-07-31T06:28:47;21.20;1.00
3308;DHT22;1666;48.898;9.182;2023-07-31T06:31:17;22.00;1.00
3308;DHT22;1666;48.898;9.182;2023-07-31T06:33:50;21.20;1.00
3308;DHT22;1666;48.898;9.182;2023-07-31T06:36:21;21.00;1.00
3308;DHT22;1666;48.898;9.182;2023-07-31T06:38:51;21.40;1.00
3308;DHT22;1666;48.898;9.182;2023-07-31T06:41:21;22.60;1.00
3308;DHT22;1666;48.898;9.182;2023-07-31T06:43:54;21.10;1.00
3308;DHT22;1666;48.898;9.182;2023-07-31T06:46:23;20.70;1.00
3308;DHT22;1666;48.898;9.182;2023-07-31T06:48:53;20.30;1.00
3308;DHT22;1666;48.898;9.182;2023-07-31T06:51:23;20.10;1.00
3308;DHT22;1666;48.898;9.182;2023-07-31T06:53:53;20.30;1.00
3308;DHT22;1666;48.898;9.182;2023-07-31T06:56:23;20.70;1.00
3308;DHT22;1666;48.898;9.182;2023-07-31T06:58:57;21.00;1.00
3308;DHT22;1666;48.898;9.182;2023-07-31T07:01:27;21.90;1.00
3308;DHT22;1666;48.898;9.182;2023-07-31T07:03:57;21.90;1.00
3308;DHT22;1666;48.898;9.182;2023-07-31T07:06:27;21.60;1.00
3308;DHT22;1666;48.898;9.182;2023-07-31T07:08:57;21.70;1.00
3308;DHT22;1666;48.898;9.182;2023-07-31T07:11:26;21.30;1.00
3308;DHT22;1666;48.898;9.182;2023-07-31T07:13:59;21.40;1.00
3308;DHT22;1666;48.898;9.182;2023-07-31T07:16:29;21.30;1.00
3308;DHT22;1666;48.898;9.182;2023-07-31T07:18:59;21.30;1.00
3308;DHT22;1666;48.898;9.182;2023-07-31T07:21:31;21.50;1.00
3308;DHT22;1666;48.898;9.182;2023-07-31T07:24:01;21.20;1.00
3308;DHT22;1666;48.898;9.182;2023-07-31T07:26:31;21.40;1.00
3308;DHT22;1666;48.898;9.182;2023-07-31T07:29:03;21.20;1.00
3308;DHT22;1666;48.898;9.182;2023-07-31T07:31:34;21.00;1.00
3308;DHT22;1666;48.898;9.182;2023-07-31T07:34:05;21.00;1.00
3308;DHT22;1666;48.898;9.182;2023-07-31T07:36:35;21.10;1.00
3308;DHT22;1666;48.898;9.182;2023-07-31T07:39:05;21.50;1.00
3308;DHT22;1666;48.898;9.182;2023-07-31T07:41:35;21.80;1.00
3308;DHT22;1666;48.898;9.182;2023-07-31T07:44:08;22.00;1.00
3308;DHT22;1666;48.898;9.182;2023-07-31T07:46:38;22.40;1.00
3308;DHT22;1666;48.898;9.182;2023-07-31T07:49:08;22.60;1.00
3308;DHT22;1666;48.898;9.182;2023-07-31T07:51:38;22.00;1.00
3308;DHT22;1666;48.898;9.182;2023-07-31T07:54:08;21.90;1.00
3308;DHT22;1666;48.898;9.182;2023-07-31T07:56:38;22.30;1.00
3308;DHT22;1666;48.898;9.182;2023-07-31T07:59:11;22.20;1.00
3308;DHT22;1666;48.898;9.182;2023-07-31T08:01:41;22.50;1.00
3308;DHT22;1666;48.898;9.182;2023-07-31T08:04:11;22.80;1.00
3308;DHT22;1666;48.898;9.182;2023-07-31T08:06:41;22.80;1.00
3308;DHT22;1666;48.898;9.182;2023-07-31T08:09:11;22.50;1.00
3308;DHT22;1666;48.898;9.182;2023-07-31T08:11:40;22.90;1.00
3308;DHT22;1666;48.898;9.182;2023-07-31T08:14:13;23.20;1.00
3308;DHT22;1666;48.898;9.182;2023-07-31T08:16:43;23.50;1.00
3308;DHT22;1666;48.898;9.182;2023-07-31T08:19:13;23.00;1.00
3308;DHT22;1666;48.898;9.182;2023-07-31T08:21:43;23.20;1.00
3308;DHT22;1666;48.898;9.182;2023-07-31T08:24:13;22.90;1.00
3308;DHT22;1666;48.898;9.182;2023-07-31T08:26:43;22.80;1.00
3308;DHT22;1666;48.898;9.182;2023-07-31T08:29:16;22.40;1.00
3308;DHT22;1666;48.898;9.182;2023-07-31T08:31:46;22.60;1.00
3308;DHT22;1666;48.898;9.182;2023-07-31T08:34:15;22.90;1.00
3308;DHT22;1666;48.898;9.182;2023-07-31T08:36:45;23.30;1.00
3308;DHT22;1666;48.898;9.182;2023-07-31T08:39:15;22.60;1.00
3308;DHT22;1666;48.898;9.182;2023-07-31T08:41:45;22.70;1.00
3308;DHT22;1666;48.898;9.182;2023-07-31T08:44:18;22.60;1.00
3308;DHT22;1666;48.898;9.182;2023-07-31T08:46:48;22.80;1.00
3308;DHT22;1666;48.898;9.182;2023-07-31T08:49:20;22.50;1.00
3308;DHT22;1666;48.898;9.182;2023-07-31T08:51:52;23.20;1.00
3308;DHT22;1666;48.898;9.182;2023-07-31T08:54:25;23.00;1.00
3308;DHT22;1666;48.898;9.182;2023-07-31T08:56:58;22.80;1.00
3308;DHT22;1666;48.898;9.182;2023-07-31T08:59:32;22.80;1.00
3308;DHT22;1666;48.898;9.182;2023-07-31T09:02:06;22.90;1.00
3308;DHT22;1666;48.898;9.182;2023-07-31T09:04:37;22.90;1.00
3308;DHT22;1666;48.898;9.182;2023-07-31T09:07:07;23.10;1.00
3308;DHT22;1666;48.898;9.182;2023-07-31T09:09:40;22.80;1.00
3308;DHT22;1666;48.898;9.182;2023-07-31T09:12:10;22.70;1.00
3308;DHT22;1666;48.898;9.182;2023-07-31T09:14:45;22.80;1.00
3308;DHT22;1666;48.898;9.182;2023-07-31T09:17:15;22.60;1.00
3308;DHT22;1666;48.898;9.182;2023-07-31T09:19:45;22.30;1.00
3308;DHT22;1666;48.898;9.182;2023-07-31T09:22:15;22.10;1.00
3308;DHT22;1666;48.898;9.182;2023-07-31T09:24:45;22.40;1.00
3308;DHT22;1666;48.898;9.182;2023-07-31T09:27:15;22.10;1.00
3308;DHT22;1666;48.898;9.182;2023-07-31T09:29:58;22.50;1.00
3308;DHT22;1666;48.898;9.182;2023-07-31T09:32:31;22.50;1.00
3308;DHT22;1666;48.898;9.182;2023-07-31T09:35:01;22.70;1.00
3308;DHT22;1666;48.898;9.182;2023-07-31T09:37:31;22.90;1.00
3308;DHT22;1666;48.898;9.182;2023-07-31T09:40:01;22.60;1.00
3308;DHT22;1666;48.898;9.182;2023-07-31T09:42:31;22.50;1.00
3308;DHT22;1666;48.898;9.182;2023-07-31T09:45:14;22.90;1.00
3308;DHT22;1666;48.898;9.182;2023-07-31T09:47:48;23.00;1.00
3308;DHT22;1666;48.898;9.182;2023-07-31T09:50:20;23.60;1.00
3308;DHT22;1666;48.898;9.182;2023-07-31T09:52:51;23.10;1.00
3308;DHT22;1666;48.898;9.182;2023-07-31T09:55:21;23.00;1.00
3308;DHT22;1666;48.898;9.182;2023-07-31T09:57:51;23.50;1.00
3308;DHT22;1666;48.898;9.182;2023-07-31T10:00:24;23.50;1.00
3308;DHT22;1666;48.898;9.182;2023-07-31T10:03:00;23.90;1.00
3308;DHT22;1666;48.898;9.182;2023-07-31T10:05:36;23.70;1.00
3308;DHT22;1666;48.898;9.182;2023-07-31T10:08:07;23.90;1.00
3308;DHT22;1666;48.898;9.182;2023-07-31T10:10:41;24.30;1.00
3308;DHT22;1666;48.898;9.182;2023-07-31T10:13:12;24.30;1.00
3308;DHT22;1666;48.898;9.182;2023-07-31T10:15:45;24.00;1.00
3308;DHT22;1666;48.898;9.182;2023-07-31T10:18:16;23.90;1.00
3308;DHT22;1666;48.898;9.182;2023-07-31T10:20:47;23.80;1.00
3308;DHT22;1666;48.898;9.182;2023-07-31T10:23:17;23.70;1.00
3308;DHT22;1666;48.898;9.182;2023-07-31T10:25:47;23.40;1.00
3308;DHT22;1666;48.898;9.182;2023-07-31T10:28:18;22.90;1.00
3308;DHT22;1666;48.898;9.182;2023-07-31T10:30:51;23.70;1.00
3308;DHT22;1666;48.898;9.182;2023-07-31T10:33:22;24.00;1.00
3308;DHT22;1666;48.898;9.182;2023-07-31T10:36:12;23.80;1.00
3308;DHT22;1666;48.898;9.182;2023-07-31T10:38:42;23.70;1.00
3308;DHT22;1666;48.898;9.182;2023-07-31T10:41:12;23.60;1.00
3308;DHT22;1666;48.898;9.182;2023-07-31T10:43:42;23.90;1.00
3308;DHT22;1666;48.898;9.182;2023-07-31T10:46:15;23.80;1.00
3308;DHT22;1666;48.898;9.182;2023-07-31T10:48:45;23.80;1.00
3308;DHT22;1666;48.898;9.182;2023-07-31T10:51:15;23.40;1.00
3308;DHT22;1666;48.898;9.182;2023-07-31T10:53:45;23.40;1.00
3308;DHT22;1666;48.898;9.182;2023-07-31T10:56:15;23.40;1.00
3308;DHT22;1666;48.898;9.182;2023-07-31T10:59:00;23.40;1.00
3308;DHT22;1666;48.898;9.182;2023-07-31T11:01:55;23.60;1.00
3308;DHT22;1666;48.898;9.182;2023-07-31T11:04:29;23.80;1.00
3308;DHT22;1666;48.898;9.182;2023-07-31T11:07:01;24.00;1.00
3308;DHT22;1666;48.898;9.182;2023-07-31T11:09:35;23.60;1.00
3308;DHT22;1666;48.898;9.182;2023-07-31T11:12:06;23.70;1.00
3308;DHT22;1666;48.898;9.182;2023-07-31T11:14:37;23.90;1.00
3308;DHT22;1666;48.898;9.182;2023-07-31T11:17:09;23.40;1.00
3308;DHT22;1666;48.898;9.182;2023-07-31T11:19:39;24.00;1.00
3308;DHT22;1666;48.898;9.182;2023-07-31T11:22:09;24.10;1.00
3308;DHT22;1666;48.898;9.182;2023-07-31T11:24:40;23.90;1.00
3308;DHT22;1666;48.898;9.182;2023-07-31T11:27:10;23.40;1.00
3308;DHT22;1666;48.898;9.182;2023-07-31T11:29:40;23.70;1.00
3308;DHT22;1666;48.898;9.182;2023-07-31T11:32:18;24.40;1.00
3308;DHT22;1666;48.898;9.182;2023-07-31T11:34:51;24.30;1.00
3308;DHT22;1666;48.898;9.182;2023-07-31T11:37:23;22.90;1.00
3308;DHT22;1666;48.898;9.182;2023-07-31T11:39:59;23.60;1.00
3308;DHT22;1666;48.898;9.182;2023-07-31T11:42:30;24.30;1.00
3308;DHT22;1666;48.898;9.182;2023-07-31T11:45:02;24.30;1.00
3308;DHT22;1666;48.898;9.182;2023-07-31T11:47:36;24.10;1.00
3308;DHT22;1666;48.898;9.182;2023-07-31T11:50:10;24.10;1.00
3308;DHT22;1666;48.898;9.182;2023-07-31T11:52:43;24.20;1.00
3308;DHT22;1666;48.898;9.182;2023-07-31T11:55:15;24.50;1.00
3308;DHT22;1666;48.898;9.182;2023-07-31T11:57:45;24.40;1.00
3308;DHT22;1666;48.898;9.182;2023-07-31T12:00:17;24.60;1.00
3308;DHT22;1666;48.898;9.182;2023-07-31T12:02:50;24.90;1.00
3308;DHT22;1666;48.898;9.182;2023-07-31T12:05:22;24.50;1.00
3308;DHT22;1666;48.898;9.182;2023-07-31T12:07:53;24.60;1.00
3308;DHT22;1666;48.898;9.182;2023-07-31T12:10:26;24.70;1.00
3308;DHT22;1666;48.898;9.182;2023-07-31T12:12:58;24.60;1.00
3308;DHT22;1666;48.898;9.182;2023-07-31T12:15:39;24.00;1.00
3308;DHT22;1666;48.898;9.182;2023-07-31T12:18:14;24.60;1.00
3308;DHT22;1666;48.898;9.182;2023-07-31T12:20:45;24.80;1.00
3308;DHT22;1666;48.898;9.182;2023-07-31T12:23:17;24.60;1.00
3308;DHT22;1666;48.898;9.182;2023-07-31T12:26:00;25.00;1.00
3308;DHT22;1666;48.898;9.182;2023-07-31T12:28:34;25.30;1.00
3308;DHT22;1666;48.898;9.182;2023-07-31T12:31:05;25.00;1.00
3308;DHT22;1666;48.898;9.182;2023-07-31T12:33:39;25.40;1.00
3308;DHT22;1666;48.898;9.182;2023-07-31T12:36:10;24.50;1.00
3308;DHT22;1666;48.898;9.182;2023-07-31T12:38:41;24.40;1.00
3308;DHT22;1666;48.898;9.182;2023-07-31T12:41:11;24.60;1.00
3308;DHT22;1666;48.898;9.182;2023-07-31T12:43:43;24.60;1.00
3308;DHT22;1666;48.898;9.182;2023-07-31T12:46:13;24.80;1.00
3308;DHT22;1666;48.898;9.182;2023-07-31T12:48:47;24.40;1.00
3308;DHT22;1666;48.898;9.182;2023-07-31T12:51:16;24.80;1.00
3308;DHT22;1666;48.898;9.182;2023-07-31T12:53:48;24.50;1.00
3308;DHT22;1666;48.898;9.182;2023-07-31T12:56:17;25.10;1.00
3308;DHT22;1666;48.898;9.182;2023-07-31T12:58:47;25.00;1.00
3308;DHT22;1666;48.898;9.182;2023-07-31T13:01:17;25.10;1.00
3308;DHT22;1666;48.898;9.182;2023-07-31T13:03:50;25.30;1.00
3308;DHT22;1666;48.898;9.182;2023-07-31T13:06:20;25.00;1.00
3308;DHT22;1666;48.898;9.182;2023-07-31T13:08:50;24.10;1.00
3308;DHT22;1666;48.898;9.182;2023-07-31T13:11:20;24.00;1.00
3308;DHT22;1666;48.898;9.182;2023-07-31T13:13:50;24.60;1.00
3308;DHT22;1666;48.898;9.182;2023-07-31T13:16:20;24.40;1.00
3308;DHT22;1666;48.898;9.182;2023-07-31T13:18:52;24.20;1.00
3308;DHT22;1666;48.898;9.182;2023-07-31T13:21:22;24.60;1.00
3308;DHT22;1666;48.898;9.182;2023-07-31T13:23:52;24.50;1.00
3308;DHT22;1666;48.898;9.182;2023-07-31T13:26:25;24.40;1.00
3308;DHT22;1666;48.898;9.182;2023-07-31T13:28:55;24.40;1.00
3308;DHT22;1666;48.898;9.182;2023-07-31T13:31:25;24.30;1.00
3308;DHT22;1666;48.898;9.182;2023-07-31T13:33:58;24.60;1.00
3308;DHT22;1666;48.898;9.182;2023-07-31T13:36:28;25.20;1.00
3308;DHT22;1666;48.898;9.182;2023-07-31T13:39:00;25.10;1.00
3308;DHT22;1666;48.898;9.182;2023-07-31T13:41:30;25.40;1.00
3308;DHT22;1666;48.898;9.182;2023-07-31T13:44:01;24.90;1.00
3308;DHT22;1666;48.898;9.182;2023-07-31T13:46:31;24.60;1.00
3308;DHT22;1666;48.898;9.182;2023-07-31T13:49:04;24.80;1.00
3308;DHT22;1666;48.898;9.182;2023-07-31T13:51:34;24.90;1.00
3308;DHT22;1666;48.898;9.182;2023-07-31T13:54:06;24.30;1.00
3308;DHT22;1666;48.898;9.182;2023-07-31T13:56:38;24.40;1.00
3308;DHT22;1666;48.898;9.182;2023-07-31T13:59:08;24.80;1.00
3308;DHT22;1666;48.898;9.182;2023-07-31T14:01:38;24.90;1.00
3308;DHT22;1666;48.898;9.182;2023-07-31T14:04:11;24.50;1.00
3308;DHT22;1666;48.898;9.182;2023-07-31T14:06:41;24.90;1.00
3308;DHT22;1666;48.898;9.182;2023-07-31T14:09:11;24.90;1.00
3308;DHT22;1666;48.898;9.182;2023-07-31T14:11:41;24.60;1.00
3308;DHT22;1666;48.898;9.182;2023-07-31T14:14:11;24.70;1.00
3308;DHT22;1666;48.898;9.182;2023-07-31T14:16:41;24.90;1.00
3308;DHT22;1666;48.898;9.182;2023-07-31T14:19:14;25.10;1.00
3308;DHT22;1666;48.898;9.182;2023-07-31T14:21:44;25.20;1.00
3308;DHT22;1666;48.898;9.182;2023-07-31T14:24:31;24.80;1.00
3308;DHT22;1666;48.898;9.182;2023-07-31T14:27:01;24.90;1.00
3308;DHT22;1666;48.898;9.182;2023-07-31T14:29:31;24.00;1.00
3308;DHT22;1666;48.898;9.182;2023-07-31T14:32:02;24.50;1.00
3308;DHT22;1666;48.898;9.182;2023-07-31T14:34:35;23.90;1.00
3308;DHT22;1666;48.898;9.182;2023-07-31T14:37:05;24.20;1.00
3308;DHT22;1666;48.898;9.182;2023-07-31T14:39:35;24.30;1.00
3308;DHT22;1666;48.898;9.182;2023-07-31T14:42:07;23.70;1.00
3308;DHT22;1666;48.898;9.182;2023-07-31T14:44:37;24.20;1.00
3308;DHT22;1666;48.898;9.182;2023-07-31T14:47:07;24.60;1.00
3308;DHT22;1666;48.898;9.182;2023-07-31T14:49:40;24.50;1.00
3308;DHT22;1666;48.898;9.182;2023-07-31T14:52:10;24.70;1.00
3308;DHT22;1666;48.898;9.182;2023-07-31T14:54:40;24.80;1.00
3308;DHT22;1666;48.898;9.182;2023-07-31T14:57:09;25.00;1.00
3308;DHT22;1666;48.898;9.182;2023-07-31T14:59:39;24.80;1.00
3308;DHT22;1666;48.898;9.182;2023-07-31T15:02:09;24.40;1.00
3308;DHT22;1666;48.898;9.182;2023-07-31T15:04:42;24.80;1.00
3308;DHT22;1666;48.898;9.182;2023-07-31T15:07:12;24.90;1.00
3308;DHT22;1666;48.898;9.182;2023-07-31T15:09:42;24.30;1.00
3308;DHT22;1666;48.898;9.182;2023-07-31T15:12:12;24.40;1.00
3308;DHT22;1666;48.898;9.182;2023-07-31T15:14:42;23.70;1.00
3308;DHT22;1666;48.898;9.182;2023-07-31T15:17:12;24.20;1.00
3308;DHT22;1666;48.898;9.182;2023-07-31T15:19:45;24.00;1.00
3308;DHT22;1666;48.898;9.182;2023-07-31T15:22:15;24.40;1.00
3308;DHT22;1666;48.898;9.182;2023-07-31T15:24:45;24.80;1.00
3308;DHT22;1666;48.898;9.182;2023-07-31T15:27:16;24.40;1.00
3308;DHT22;1666;48.898;9.182;2023-07-31T15:29:45;25.00;1.00
3308;DHT22;1666;48.898;9.182;2023-07-31T15:32:15;25.00;1.00
3308;DHT22;1666;48.898;9.182;2023-07-31T15:34:48;24.40;1.00
3308;DHT22;1666;48.898;9.182;2023-07-31T15:37:18;24.30;1.00
3308;DHT22;1666;48.898;9.182;2023-07-31T15:39:48;24.60;1.00
3308;DHT22;1666;48.898;9.182;2023-07-31T15:42:18;24.90;1.00
3308;DHT22;1666;48.898;9.182;2023-07-31T15:44:48;24.90;1.00
3308;DHT22;1666;48.898;9.182;2023-07-31T15:47:18;24.40;1.00
3308;DHT22;1666;48.898;9.182;2023-07-31T15:49:51;24.60;1.00
3308;DHT22;1666;48.898;9.182;2023-07-31T15:52:21;25.00;1.00
3308;DHT22;1666;48.898;9.182;2023-07-31T15:54:51;24.70;1.00
3308;DHT22;1666;48.898;9.182;2023-07-31T15:57:21;24.70;1.00
3308;DHT22;1666;48.898;9.182;2023-07-31T15:59:52;24.80;1.00
3308;DHT22;1666;48.898;9.182;2023-07-31T16:02:22;24.90;1.00
3308;DHT22;1666;48.898;9.182;2023-07-31T16:04:54;24.80;1.00
3308;DHT22;1666;48.898;9.182;2023-07-31T16:07:24;24.70;1.00
3308;DHT22;1666;48.898;9.182;2023-07-31T16:09:56;25.30;1.00
3308;DHT22;1666;48.898;9.182;2023-07-31T16:12:26;25.30;1.00
3308;DHT22;1666;48.898;9.182;2023-07-31T16:14:56;25.00;1.00
3308;DHT22;1666;48.898;9.182;2023-07-31T16:17:26;24.80;1.00
3308;DHT22;1666;48.898;9.182;2023-07-31T16:19:58;25.10;1.00
3308;DHT22;1666;48.898;9.182;2023-07-31T16:22:28;25.20;1.00
3308;DHT22;1666;48.898;9.182;2023-07-31T16:24:58;24.90;1.00
3308;DHT22;1666;48.898;9.182;2023-07-31T16:27:28;24.70;1.00
3308;DHT22;1666;48.898;9.182;2023-07-31T16:29:58;24.70;1.00
3308;DHT22;1666;48.898;9.182;2023-07-31T16:32:28;24.60;1.00
3308;DHT22;1666;48.898;9.182;2023-07-31T16:35:02;24.60;1.00
3308;DHT22;1666;48.898;9.182;2023-07-31T16:37:33;24.70;1.00
3308;DHT22;1666;48.898;9.182;2023-07-31T16:40:05;24.60;1.00
3308;DHT22;1666;48.898;9.182;2023-07-31T16:42:35;24.60;1.00